Time;durP1;ratioP1;P1;durP2;ratioP2;P2;SDS_P1;SDS_P2;PMS_P1;PMS_P2;Temp;Humidity;BMP_temperature;BMP_pressure;BME280_temperature;BME280_humidity;BME280_pressure;Samples;Min_cycle;Max_cycle;Signal;HPM_P1;HPM_P2
2022/05/20 00:00:53;;;;;;;3.13;2.93;;;21.40;51.30;;;;;;5030937;28;20266;-58
2022/05/20 00:03:19;;;;;;;3.20;3.00;;;21.40;52.10;;;;;;5036253;28;20468;-58
2022/05/20 00:05:45;;;;;;;3.43;3.23;;;21.40;51.30;;;;;;5036770;28;20235;-58
2022/05/20 00:08:10;;;;;;;3.13;2.97;;;21.40;51.30;;;;;;5035083;28;20318;-57
2022/05/20 00:10:36;;;;;;;3.30;3.10;;;21.40;51.30;;;;;;5040799;28;20219;-58
2022/05/20 00:13:03;;;;;;;3.43;3.23;;;21.40;51.30;;;;;;5023097;28;20300;-58
2022/05/20 00:15:30;;;;;;;3.50;3.30;;;21.40;51.30;;;;;;5037399;28;20885;-57
2022/05/20 00:17:56;;;;;;;3.23;3.03;;;21.40;51.30;;;;;;5040010;28;20802;-57
2022/05/20 00:20:24;;;;;;;3.10;2.90;;;21.40;51.30;;;;;;5041726;28;20517;-57
2022/05/20 00:22:50;;;;;;;3.20;3.00;;;21.40;51.30;;;;;;5034385;28;20460;-57
2022/05/20 00:28:06;;;;;;;3.10;2.90;;;21.40;51.20;;;;;;5040002;28;20458;-57
2022/05/20 00:30:32;;;;;;;3.43;3.23;;;21.40;51.30;;;;;;5040606;28;20456;-58
2022/05/20 00:32:58;;;;;;;3.60;3.40;;;21.40;51.30;;;;;;5039290;28;20293;-58
2022/05/20 00:35:24;;;;;;;3.47;3.27;;;21.40;51.20;;;;;;5039481;28;20436;-58
2022/05/20 00:37:50;;;;;;;2.87;2.67;;;21.40;51.30;;;;;;5033728;28;20231;-58
2022/05/20 00:40:19;;;;;;;3.23;3.03;;;21.40;51.30;;;;;;5036689;28;20251;-57
2022/05/20 00:42:45;;;;;;;3.17;2.97;;;21.40;51.30;;;;;;5032257;28;20302;-58
2022/05/20 00:45:12;;;;;;;2.80;2.70;;;21.40;51.20;;;;;;5034985;28;20559;-57
2022/05/20 00:47:38;;;;;;;3.30;3.10;;;21.40;51.30;;;;;;5037576;28;20658;-57
2022/05/20 00:50:12;;;;;;;3.37;3.17;;;21.40;51.20;;;;;;5036308;28;20989;-58
2022/05/20 00:52:40;;;;;;;2.83;2.73;;;21.40;51.30;;;;;;5035320;28;20459;-57
2022/05/20 00:55:10;;;;;;;3.07;2.83;;;21.40;51.30;;;;;;5037364;28;20455;-57
2022/05/20 00:57:51;;;;;;;2.90;2.80;;;21.40;51.20;;;;;;5036217;28;20447;-58
2022/05/20 01:00:20;;;;;;;3.57;3.37;;;21.40;51.20;;;;;;5017555;28;21035;-57
2022/05/20 01:02:50;;;;;;;3.13;2.93;;;21.30;51.10;;;;;;5038001;28;20472;-58
2022/05/20 01:05:28;;;;;;;2.87;2.77;;;21.40;51.20;;;;;;5035794;28;20484;-57
2022/05/20 01:07:55;;;;;;;3.40;3.20;;;21.40;51.30;;;;;;5037395;28;20831;-57
2022/05/20 01:10:21;;;;;;;2.90;2.80;;;21.30;51.10;;;;;;5038016;28;20432;-57
2022/05/20 01:12:53;;;;;;;2.77;2.67;;;21.30;51.10;;;;;;5034550;28;20809;-58
2022/05/20 01:15:19;;;;;;;3.20;3.00;;;21.40;51.20;;;;;;5035205;28;20255;-57
2022/05/20 01:17:46;;;;;;;3.03;2.83;;;21.30;51.10;;;;;;5037088;28;20968;-57
2022/05/20 01:20:20;;;;;;;3.40;3.20;;;21.30;51.10;;;;;;5030299;28;20457;-58
2022/05/20 01:22:48;;;;;;;3.37;3.17;;;21.30;51.10;;;;;;5036093;28;20493;-57
2022/05/20 01:25:15;;;;;;;3.30;3.10;;;21.30;51.10;;;;;;5035430;28;20948;-57
2022/05/20 01:27:42;;;;;;;3.67;3.47;;;21.40;51.20;;;;;;5030855;28;20527;-57
2022/05/20 01:30:10;;;;;;;3.80;3.60;;;21.30;51.00;;;;;;5037097;28;20546;-57
2022/05/20 01:32:35;;;;;;;3.43;3.23;;;21.30;51.10;;;;;;5039158;28;20465;-58
2022/05/20 01:35:04;;;;;;;3.80;3.60;;;21.30;51.00;;;;;;5036107;28;20964;-57
2022/05/20 01:37:30;;;;;;;3.20;3.00;;;21.30;51.00;;;;;;5034187;28;20238;-57
2022/05/20 01:39:58;;;;;;;3.47;3.27;;;21.30;51.00;;;;;;5037855;28;20473;-57
2022/05/20 01:42:32;;;;;;;3.87;3.67;;;21.30;51.00;;;;;;5036487;28;20672;-57
2022/05/20 01:45:04;;;;;;;3.93;3.73;;;21.40;51.00;;;;;;5035891;28;20542;-58
2022/05/20 01:47:41;;;;;;;3.50;3.30;;;21.40;50.90;;;;;;5035762;28;20444;-57
2022/05/20 01:50:11;;;;;;;4.10;3.90;;;21.40;50.90;;;;;;5031323;28;21031;-58
2022/05/20 01:52:48;;;;;;;3.40;3.20;;;21.30;50.80;;;;;;5039125;28;20436;-58
2022/05/20 01:55:30;;;;;;;3.57;3.37;;;21.30;50.80;;;;;;5034919;28;20426;-58
2022/05/20 01:58:27;;;;;;;3.60;3.40;;;21.30;50.70;;;;;;5032550;28;20423;-57
2022/05/20 02:00:57;;;;;;;3.07;2.90;;;21.30;50.80;;;;;;4998218;28;20472;-57
2022/05/20 02:04:02;;;;;;;3.50;3.30;;;21.30;50.90;;;;;;5030295;28;20476;-58
2022/05/20 02:06:36;;;;;;;3.70;3.50;;;21.30;50.80;;;;;;4916306;29;20512;-58
2022/05/20 02:09:26;;;;;;;3.80;3.53;;;21.30;50.80;;;;;;5023486;28;20538;-57
2022/05/20 02:11:54;;;;;;;3.50;3.30;;;21.30;50.90;;;;;;5030524;28;20426;-57
2022/05/20 02:14:25;;;;;;;3.27;3.07;;;21.30;50.90;;;;;;5037084;28;20463;-57
2022/05/20 02:17:12;;;;;;;3.20;3.10;;;21.30;50.90;;;;;;5031411;28;20468;-57
2022/05/20 02:19:52;;;;;;;3.33;3.13;;;21.30;50.90;;;;;;5032577;28;20485;-57
2022/05/20 02:22:22;;;;;;;3.97;3.67;;;21.30;50.90;;;;;;5037036;28;20442;-57
2022/05/20 02:24:49;;;;;;;3.20;3.10;;;21.30;50.80;;;;;;5034597;28;20894;-57
2022/05/20 02:27:24;;;;;;;3.33;3.13;;;21.30;50.80;;;;;;5036123;28;20450;-57
2022/05/20 02:30:16;;;;;;;3.80;3.60;;;21.30;50.90;;;;;;5036392;28;20434;-57
2022/05/20 02:32:59;;;;;;;3.80;3.60;;;21.30;50.90;;;;;;5029501;28;20465;-57
2022/05/20 02:35:24;;;;;;;4.30;4.00;;;21.30;50.90;;;;;;5032906;28;20864;-57
2022/05/20 02:37:50;;;;;;;4.50;4.20;;;21.30;51.00;;;;;;5033098;28;20458;-57
2022/05/20 02:40:18;;;;;;;4.90;4.60;;;21.30;50.90;;;;;;5029073;28;20310;-57
2022/05/20 02:42:44;;;;;;;4.33;4.13;;;21.30;51.70;;;;;;5036623;28;20368;-57
2022/05/20 02:45:10;;;;;;;4.90;4.60;;;21.30;50.90;;;;;;5035527;28;20453;-58
2022/05/20 02:47:36;;;;;;;4.97;4.67;;;21.30;50.90;;;;;;5031214;28;20279;-58
2022/05/20 02:50:07;;;;;;;5.27;4.97;;;21.30;50.90;;;;;;5033129;28;20438;-57
2022/05/20 02:52:33;;;;;;;5.23;4.93;;;21.30;50.80;;;;;;5032041;28;20520;-57
2022/05/20 02:54:58;;;;;;;4.57;4.37;;;21.30;50.80;;;;;;5034108;28;20458;-57
2022/05/20 02:57:24;;;;;;;4.93;4.63;;;21.30;50.80;;;;;;5034350;28;20317;-57
2022/05/20 03:05:19;;;;;;;6.00;5.60;;;21.30;50.80;;;;;;5034869;28;20497;-57
2022/05/20 03:07:44;;;;;;;6.13;5.63;;;21.30;50.80;;;;;;5037492;28;20440;-57
2022/05/20 03:10:11;;;;;;;6.17;5.77;;;21.30;50.80;;;;;;5032030;28;20493;-57
2022/05/20 03:12:36;;;;;;;5.00;4.70;;;21.30;51.60;;;;;;5017429;28;20230;-58
2022/05/20 03:15:07;;;;;;;5.13;4.77;;;21.30;50.80;;;;;;5032785;28;20456;-57
2022/05/20 03:17:34;;;;;;;5.77;5.27;;;21.30;50.70;;;;;;5035018;28;20222;-57
2022/05/20 03:20:00;;;;;;;5.20;4.87;;;21.30;50.70;;;;;;5035155;28;20445;-57
2022/05/20 03:22:25;;;;;;;5.20;4.80;;;21.30;50.70;;;;;;5037142;28;20470;-58
2022/05/20 03:24:51;;;;;;;5.07;4.77;;;21.30;50.70;;;;;;5030391;28;20230;-57
2022/05/20 03:27:17;;;;;;;5.23;4.90;;;21.30;50.70;;;;;;5036765;28;20242;-57
2022/05/20 03:29:46;;;;;;;5.67;5.27;;;21.30;50.60;;;;;;5038305;28;20275;-57
2022/05/20 03:32:13;;;;;;;5.77;5.33;;;21.30;51.30;;;;;;5036131;28;20226;-57
2022/05/20 03:34:40;;;;;;;5.13;4.83;;;21.30;50.60;;;;;;5036721;28;20452;-57
2022/05/20 03:37:06;;;;;;;5.53;5.23;;;21.30;50.60;;;;;;5033061;28;20448;-58
2022/05/20 03:39:31;;;;;;;5.80;5.40;;;21.30;50.70;;;;;;5036931;28;20414;-57
2022/05/20 03:41:57;;;;;;;5.43;5.03;;;21.30;50.60;;;;;;5037555;28;20502;-57
2022/05/20 03:44:24;;;;;;;5.37;5.07;;;21.30;50.60;;;;;;5034466;28;20225;-57
2022/05/20 03:46:52;;;;;;;5.70;5.20;;;21.30;50.50;;;;;;5031420;28;20223;-58
2022/05/20 03:49:19;;;;;;;4.60;4.30;;;21.30;50.60;;;;;;5035413;28;20543;-57
2022/05/20 03:51:47;;;;;;;5.70;5.30;;;21.30;50.50;;;;;;5037643;28;20448;-58
2022/05/20 03:54:15;;;;;;;5.53;5.23;;;21.30;50.60;;;;;;5035761;28;20451;-58
2022/05/20 03:56:40;;;;;;;6.17;5.80;;;21.30;50.60;;;;;;5040873;28;20918;-57
2022/05/20 03:59:10;;;;;;;5.00;4.80;;;21.30;50.50;;;;;;5033827;28;20444;-58
2022/05/20 04:04:23;;;;;;;5.70;5.30;;;21.30;50.50;;;;;;5038867;28;20433;-57
2022/05/20 04:06:48;;;;;;;6.47;6.03;;;21.30;50.50;;;;;;5039733;28;20471;-57
2022/05/20 04:09:14;;;;;;;5.10;4.80;;;21.30;50.50;;;;;;5035512;28;20509;-57
2022/05/20 04:11:40;;;;;;;5.70;5.40;;;21.30;50.50;;;;;;5040852;28;20590;-58
2022/05/20 04:14:06;;;;;;;6.17;5.77;;;21.30;50.50;;;;;;5034563;28;20219;-58
2022/05/20 04:16:31;;;;;;;6.27;5.80;;;21.30;50.50;;;;;;5039430;28;20238;-57
2022/05/20 04:18:57;;;;;;;6.13;5.73;;;21.30;50.50;;;;;;5035254;28;20227;-57
2022/05/20 04:21:23;;;;;;;5.40;5.10;;;21.30;50.50;;;;;;5037539;28;20222;-57
2022/05/20 04:23:48;;;;;;;5.33;4.93;;;21.30;50.50;;;;;;5021766;28;20231;-57
2022/05/20 04:26:15;;;;;;;6.07;5.67;;;21.30;50.40;;;;;;5037188;28;20242;-57
2022/05/20 04:28:40;;;;;;;6.07;5.73;;;21.30;50.40;;;;;;5031563;28;20226;-57
2022/05/20 04:31:08;;;;;;;5.97;5.60;;;21.20;50.30;;;;;;5041424;28;20415;-58
2022/05/20 04:33:34;;;;;;;5.20;4.90;;;21.20;50.30;;;;;;5036491;28;20237;-57
2022/05/20 04:35:59;;;;;;;6.07;5.67;;;21.30;50.40;;;;;;5031105;28;20456;-58
2022/05/20 04:38:25;;;;;;;6.13;5.73;;;21.30;50.40;;;;;;5039431;28;20466;-59
2022/05/20 04:49:06;;;;;;;6.07;5.70;;;21.30;50.30;;;;;;5037021;28;21000;-58
2022/05/20 04:51:32;;;;;;;6.10;5.60;;;21.30;50.30;;;;;;5040078;28;20534;-58
2022/05/20 04:56:42;;;;;;;5.60;5.30;;;21.30;50.20;;;;;;5037502;28;20526;-59
2022/05/20 04:59:08;;;;;;;6.00;5.60;;;21.30;50.20;;;;;;5034866;28;20415;-60
2022/05/20 05:01:33;;;;;;;7.03;5.30;;;21.30;50.20;;;;;;5034691;28;20222;-59
2022/05/20 05:03:59;;;;;;;5.30;4.90;;;21.30;50.20;;;;;;5021130;28;20241;-60
2022/05/20 05:06:24;;;;;;;5.30;4.90;;;21.30;50.20;;;;;;5018912;28;20242;-59
2022/05/20 05:08:50;;;;;;;5.73;5.43;;;21.30;50.90;;;;;;5033508;28;20232;-59
2022/05/20 05:11:15;;;;;;;4.97;4.70;;;21.30;50.10;;;;;;5030339;28;20742;-58
2022/05/20 05:13:41;;;;;;;5.93;5.50;;;21.30;50.10;;;;;;5027972;28;20634;-61
2022/05/20 05:16:08;;;;;;;6.13;5.63;;;21.30;50.10;;;;;;5029961;28;20325;-60
2022/05/20 05:18:36;;;;;;;6.00;5.60;;;21.30;50.10;;;;;;5023326;28;20711;-59
2022/05/20 05:21:02;;;;;;;5.50;5.10;;;21.30;50.10;;;;;;5015733;28;20517;-59
2022/05/20 05:23:28;;;;;;;5.37;4.97;;;21.30;50.10;;;;;;5037923;28;20434;-58
2022/05/20 05:25:53;;;;;;;5.43;5.00;;;21.30;50.10;;;;;;5036993;28;20501;-58
2022/05/20 05:28:20;;;;;;;5.97;5.57;;;21.30;50.10;;;;;;5034438;28;20310;-58
2022/05/20 05:30:51;;;;;;;4.83;4.63;;;21.30;50.10;;;;;;5038994;28;20246;-58
2022/05/20 05:33:18;;;;;;;6.43;5.10;;;21.30;50.10;;;;;;5033571;28;20456;-58
2022/05/20 05:35:44;;;;;;;5.63;5.20;;;21.30;50.10;;;;;;5035258;28;20423;-59
2022/05/20 05:38:10;;;;;;;5.30;5.00;;;21.30;50.00;;;;;;5036566;28;20809;-58
2022/05/20 05:40:35;;;;;;;6.33;5.73;;;21.30;50.10;;;;;;5038644;28;20447;-58
2022/05/20 05:43:02;;;;;;;5.37;5.07;;;21.30;50.10;;;;;;5036275;28;20233;-58
2022/05/20 05:45:30;;;;;;;6.07;5.67;;;21.30;50.10;;;;;;5035320;28;20219;-58
2022/05/20 05:48:04;;;;;;;5.40;5.10;;;21.30;50.10;;;;;;5030530;28;20773;-58
2022/05/20 05:50:32;;;;;;;5.57;5.07;;;21.30;50.10;;;;;;5026481;28;20447;-58
2022/05/20 05:53:06;;;;;;;4.80;4.50;;;21.30;50.10;;;;;;5029793;28;20471;-59
2022/05/20 05:55:31;;;;;;;5.30;5.00;;;21.30;50.10;;;;;;5028922;28;20835;-58
2022/05/20 05:57:57;;;;;;;5.40;5.00;;;21.30;50.10;;;;;;5032091;28;20439;-58
2022/05/20 06:00:23;;;;;;;5.40;5.10;;;21.30;50.10;;;;;;5036123;28;20269;-57
2022/05/20 06:02:49;;;;;;;5.13;4.80;;;21.30;50.10;;;;;;5031764;28;20247;-58
2022/05/20 06:05:15;;;;;;;4.73;4.43;;;21.30;50.10;;;;;;5031613;28;20488;-58
2022/05/20 06:07:41;;;;;;;4.87;4.57;;;21.30;50.10;;;;;;5036385;28;20219;-58
2022/05/20 06:10:07;;;;;;;4.67;4.30;;;21.30;50.10;;;;;;5033092;28;20458;-57
2022/05/20 06:12:33;;;;;;;4.60;4.40;;;21.30;50.10;;;;;;5029683;28;20214;-58
2022/05/20 06:15:06;;;;;;;4.10;3.90;;;21.30;50.10;;;;;;5035900;28;20411;-58
2022/05/20 06:17:32;;;;;;;4.73;4.43;;;21.40;50.10;;;;;;5036230;28;20438;-58
2022/05/20 06:19:58;;;;;;;4.30;4.10;;;21.30;50.10;;;;;;5033672;28;20960;-58
2022/05/20 06:22:24;;;;;;;4.27;4.07;;;21.40;50.20;;;;;;5034004;28;20456;-58
2022/05/20 06:24:49;;;;;;;3.63;3.43;;;21.40;50.20;;;;;;5019167;28;20591;-58
2022/05/20 06:27:15;;;;;;;4.17;3.97;;;21.30;50.10;;;;;;5033689;28;20244;-58
2022/05/20 06:29:40;;;;;;;4.50;4.10;;;21.40;50.10;;;;;;5035919;28;20225;-59
2022/05/20 06:32:06;;;;;;;4.00;3.70;;;21.40;50.20;;;;;;5019510;28;20268;-59
2022/05/20 06:39:48;;;;;;;3.93;3.70;;;21.40;50.20;;;;;;5017097;28;20280;-58
2022/05/20 06:40:09;;;;;;;3.70;3.50;;;21.40;50.20;;;;;;5036660;28;20505;-58
2022/05/20 06:42:34;;;;;;;3.90;3.70;;;21.40;50.20;;;;;;5034899;28;20896;-58
2022/05/20 06:45:00;;;;;;;4.23;4.00;;;21.40;50.20;;;;;;5038668;28;20448;-58
2022/05/20 06:47:26;;;;;;;4.07;3.77;;;21.40;50.30;;;;;;5034258;28;20401;-58
2022/05/20 06:49:51;;;;;;;4.30;4.00;;;21.40;51.00;;;;;;5033328;28;20222;-58
2022/05/20 06:52:17;;;;;;;3.80;3.60;;;21.40;50.20;;;;;;5037789;28;20635;-58
2022/05/20 06:54:42;;;;;;;4.13;3.93;;;21.40;50.20;;;;;;5030665;28;20219;-58
2022/05/20 06:57:08;;;;;;;3.63;3.43;;;21.40;50.30;;;;;;5033793;28;20247;-58
2022/05/20 06:59:35;;;;;;;3.73;3.43;;;21.40;50.20;;;;;;5035630;28;20268;-58
2022/05/20 07:02:01;;;;;;;3.93;3.73;;;21.40;50.30;;;;;;5019678;28;20218;-58
2022/05/20 07:04:29;;;;;;;4.17;3.97;;;21.40;50.20;;;;;;5035512;28;20822;-58
2022/05/20 07:06:56;;;;;;;3.60;3.40;;;21.40;50.20;;;;;;5031962;28;20292;-58
2022/05/20 07:09:21;;;;;;;4.10;3.80;;;21.40;50.30;;;;;;5029862;28;20945;-58
2022/05/20 07:11:47;;;;;;;3.80;3.60;;;21.40;50.20;;;;;;5033618;28;20455;-59
2022/05/20 07:14:13;;;;;;;4.33;4.13;;;21.40;50.30;;;;;;5034419;28;20672;-58
2022/05/20 07:16:38;;;;;;;3.90;3.70;;;21.40;50.30;;;;;;5028513;28;20249;-58
2022/05/20 07:19:05;;;;;;;4.20;3.90;;;21.40;50.30;;;;;;5026196;28;20227;-59
2022/05/20 07:21:30;;;;;;;3.87;3.67;;;21.40;50.30;;;;;;5033075;28;20218;-58
2022/05/20 07:23:56;;;;;;;3.80;3.50;;;21.40;50.30;;;;;;5033285;28;20520;-58
2022/05/20 07:26:22;;;;;;;4.03;3.83;;;21.40;50.30;;;;;;5038614;28;20592;-59
2022/05/20 07:28:48;;;;;;;3.70;3.50;;;21.40;50.30;;;;;;5038511;28;20624;-59
2022/05/20 07:31:15;;;;;;;4.30;4.00;;;21.40;50.40;;;;;;5036991;28;20533;-58
2022/05/20 07:33:41;;;;;;;4.00;3.80;;;21.40;50.30;;;;;;5036547;28;20214;-58
2022/05/20 07:36:07;;;;;;;3.80;3.60;;;21.40;50.30;;;;;;5038272;28;21110;-59
2022/05/20 07:38:33;;;;;;;4.10;3.90;;;21.40;50.40;;;;;;5038396;28;20234;-58
2022/05/20 07:41:00;;;;;;;3.57;3.37;;;21.40;50.30;;;;;;5040246;28;20430;-60
2022/05/20 07:43:26;;;;;;;3.57;3.37;;;21.40;50.30;;;;;;5039677;28;20458;-58
2022/05/20 07:45:53;;;;;;;4.30;4.10;;;21.40;50.30;;;;;;5039268;28;20482;-59
2022/05/20 07:48:19;;;;;;;3.80;3.60;;;21.40;50.30;;;;;;5038553;28;20475;-60
2022/05/20 07:50:49;;;;;;;4.30;4.10;;;21.40;50.40;;;;;;5036072;28;20464;-59
2022/05/20 07:53:20;;;;;;;4.87;4.67;;;21.40;50.30;;;;;;5037539;28;20800;-59
2022/05/20 07:55:51;;;;;;;4.50;4.30;;;21.40;50.30;;;;;;5038677;28;20456;-59
2022/05/20 07:58:20;;;;;;;4.47;4.27;;;21.40;50.30;;;;;;5037047;28;20499;-59
2022/05/20 08:00:45;;;;;;;5.00;4.70;;;21.40;50.40;;;;;;5036436;28;20835;-60
2022/05/20 08:04:52;;;;;;;4.53;4.30;;;21.40;50.30;;;;;;5033208;28;20430;-59
2022/05/20 08:05:58;;;;;;;4.10;3.90;;;21.40;50.40;;;;;;5038159;28;20227;-59
2022/05/20 08:08:24;;;;;;;5.13;4.73;;;21.40;50.40;;;;;;5034302;28;20788;-59
2022/05/20 08:10:49;;;;;;;5.17;4.87;;;21.40;50.50;;;;;;5041505;28;20317;-59
2022/05/20 08:13:17;;;;;;;4.90;4.67;;;21.40;50.40;;;;;;5035713;28;20242;-60
2022/05/20 08:15:42;;;;;;;5.03;4.63;;;21.40;50.30;;;;;;5034081;28;20223;-59
2022/05/20 08:18:08;;;;;;;5.30;5.03;;;21.40;50.40;;;;;;5037682;28;20456;-59
2022/05/20 08:20:33;;;;;;;5.70;5.27;;;21.40;50.30;;;;;;5033972;28;20211;-59
2022/05/20 08:23:00;;;;;;;5.10;4.80;;;21.40;50.50;;;;;;5033254;28;20234;-59
2022/05/20 08:25:26;;;;;;;5.77;5.47;;;21.40;50.40;;;;;;5039103;28;20289;-59
2022/05/20 08:27:52;;;;;;;5.67;5.27;;;21.40;50.50;;;;;;5041153;28;20448;-59
2022/05/20 08:30:24;;;;;;;6.10;5.60;;;21.40;50.40;;;;;;5032241;28;20255;-59
2022/05/20 08:32:50;;;;;;;5.80;5.50;;;21.40;50.40;;;;;;5036952;28;20448;-59
2022/05/20 08:35:16;;;;;;;5.47;5.17;;;21.40;50.40;;;;;;5033266;28;20484;-61
2022/05/20 08:37:44;;;;;;;5.17;4.87;;;21.40;50.50;;;;;;5038894;28;20234;-60
2022/05/20 08:40:20;;;;;;;6.10;5.60;;;21.40;50.40;;;;;;5037030;28;20785;-60
2022/05/20 08:42:46;;;;;;;5.53;5.23;;;21.40;50.50;;;;;;5035814;28;20934;-59
2022/05/20 08:45:15;;;;;;;6.93;6.53;;;21.40;50.50;;;;;;5034524;28;20531;-59
2022/05/20 08:47:44;;;;;;;6.00;5.70;;;21.40;50.50;;;;;;5040558;28;20230;-61
2022/05/20 08:50:18;;;;;;;5.13;4.83;;;21.40;50.50;;;;;;5035055;28;20449;-60
2022/05/20 08:52:44;;;;;;;6.27;5.87;;;21.40;50.50;;;;;;5033669;28;20603;-59
2022/05/20 08:55:10;;;;;;;6.90;6.40;;;21.40;50.50;;;;;;5036769;28;21035;-60
2022/05/20 08:57:37;;;;;;;6.60;6.10;;;21.40;50.50;;;;;;5032291;28;20586;-60
2022/05/20 09:00:09;;;;;;;5.33;5.03;;;21.40;50.50;;;;;;5032798;28;20470;-59
2022/05/20 09:02:36;;;;;;;6.60;6.13;;;21.40;50.50;;;;;;5035198;28;20441;-59
2022/05/20 09:05:17;;;;;;;6.17;5.77;;;21.40;50.60;;;;;;5038717;28;20470;-59
2022/05/20 09:07:59;;;;;;;6.47;6.07;;;21.40;50.50;;;;;;5037653;28;20506;-59
2022/05/20 09:10:56;;;;;;;6.30;5.90;;;21.40;50.50;;;;;;5034438;28;20473;-59
2022/05/20 09:16:27;;;;;;;6.70;6.30;;;21.40;50.50;;;;;;5038798;28;20470;-58
2022/05/20 09:19:14;;;;;;;7.50;7.00;;;21.40;50.50;;;;;;5033443;28;20493;-59
2022/05/20 09:21:43;;;;;;;6.40;6.00;;;21.40;50.50;;;;;;5040275;28;20567;-59
2022/05/20 09:24:21;;;;;;;6.10;5.80;;;21.40;50.50;;;;;;5033558;28;20999;-59
2022/05/20 09:27:12;;;;;;;7.60;6.83;;;21.30;50.50;;;;;;5033319;28;20472;-59
2022/05/20 09:29:43;;;;;;;7.07;6.67;;;21.40;50.60;;;;;;5029152;28;20435;-59
2022/05/20 09:32:26;;;;;;;6.30;5.93;;;21.40;50.50;;;;;;5035997;28;20987;-59
2022/05/20 09:35:22;;;;;;;6.53;6.13;;;21.40;50.60;;;;;;5029979;28;20459;-59
2022/05/20 09:37:52;;;;;;;6.60;6.20;;;21.40;50.60;;;;;;5027422;28;20538;-59
2022/05/20 09:40:37;;;;;;;8.00;7.40;;;21.40;50.60;;;;;;5033503;28;20480;-59
2022/05/20 09:43:29;;;;;;;7.10;6.70;;;21.30;50.50;;;;;;5030658;28;20476;-59
2022/05/20 09:45:58;;;;;;;7.13;6.73;;;21.30;50.50;;;;;;5029687;28;20481;-59
2022/05/20 09:49:03;;;;;;;7.13;6.67;;;21.40;50.60;;;;;;5030967;28;20425;-59
2022/05/20 09:51:40;;;;;;;6.67;6.10;;;21.40;50.60;;;;;;4995936;28;20448;-59
2022/05/20 09:54:05;;;;;;;8.20;7.50;;;21.30;50.50;;;;;;5032444;28;20443;-59
2022/05/20 09:56:33;;;;;;;8.30;7.70;;;21.40;50.70;;;;;;5033185;28;20440;-58
2022/05/20 09:59:17;;;;;;;7.97;7.37;;;21.30;50.60;;;;;;5022970;28;20245;-59
2022/05/20 10:01:58;;;;;;;6.70;6.30;;;21.30;50.60;;;;;;5036644;28;20463;-59
2022/05/20 10:04:43;;;;;;;6.73;6.23;;;21.40;50.70;;;;;;5034591;28;20453;-58
2022/05/20 10:07:13;;;;;;;7.53;7.00;;;21.30;50.60;;;;;;5034718;28;20475;-58
2022/05/20 10:10:03;;;;;;;7.87;7.30;;;21.30;50.60;;;;;;5033693;28;20504;-59
2022/05/20 10:12:33;;;;;;;7.40;6.90;;;21.30;50.60;;;;;;5032361;28;20440;-58
2022/05/20 10:15:20;;;;;;;7.17;6.77;;;21.30;50.60;;;;;;5033803;28;20441;-59
2022/05/20 10:18:09;;;;;;;7.50;7.00;;;21.40;50.70;;;;;;5028973;28;21189;-59
2022/05/20 10:20:40;;;;;;;7.33;6.73;;;21.30;50.60;;;;;;5032489;28;20855;-60
2022/05/20 10:23:34;;;;;;;8.23;7.60;;;21.30;50.60;;;;;;5030712;28;20494;-59
2022/05/20 10:26:11;;;;;;;8.13;7.53;;;21.30;50.60;;;;;;5033681;28;20452;-58
2022/05/20 10:34:37;;;;;;;7.80;7.30;;;21.30;50.60;;;;;;5018957;28;20455;-58
2022/05/20 10:37:27;;;;;;;8.13;7.43;;;21.30;50.60;;;;;;5036852;28;20440;-58
2022/05/20 10:40:01;;;;;;;7.93;7.43;;;21.40;50.70;;;;;;5031061;28;20223;-58
2022/05/20 10:42:42;;;;;;;8.30;7.70;;;21.30;50.60;;;;;;5031739;28;20451;-58
2022/05/20 10:48:34;;;;;;;8.40;7.80;;;21.40;50.50;;;;;;5032058;28;20586;-58
2022/05/20 10:51:09;;;;;;;9.10;8.40;;;21.40;50.30;;;;;;5000301;28;20443;-57
2022/05/20 10:53:53;;;;;;;8.90;8.20;;;21.40;50.20;;;;;;5034276;28;20418;-58
2022/05/20 10:56:40;;;;;;;7.80;7.30;;;21.40;50.20;;;;;;5033366;28;20495;-57
2022/05/20 10:59:30;;;;;;;9.53;8.63;;;21.40;50.20;;;;;;5031121;28;20444;-57
2022/05/20 11:02:04;;;;;;;8.37;7.67;;;21.40;50.10;;;;;;5046426;28;20440;-57
2022/05/20 11:04:58;;;;;;;11.30;8.40;;;21.40;50.10;;;;;;5035859;28;20798;-57
2022/05/20 11:07:52;;;;;;;7.13;6.67;;;21.50;50.20;;;;;;5041327;28;20482;-59
2022/05/20 11:10:41;;;;;;;7.57;7.07;;;21.50;50.10;;;;;;5034063;28;20470;-58
2022/05/20 11:13:10;;;;;;;7.90;7.30;;;21.40;50.10;;;;;;5040972;28;20456;-58
2022/05/20 11:15:35;;;;;;;8.30;7.63;;;21.40;50.10;;;;;;5037925;28;20904;-59
2022/05/20 11:18:40;;;;;;;8.83;8.03;;;21.40;50.10;;;;;;5038660;28;20423;-58
2022/05/20 11:21:39;;;;;;;8.33;7.77;;;21.40;50.10;;;;;;5017036;28;20387;-59
2022/05/20 11:24:30;;;;;;;8.10;7.50;;;21.40;50.10;;;;;;5036252;28;20480;-59
2022/05/20 11:27:26;;;;;;;8.27;7.63;;;21.50;50.30;;;;;;5035564;28;20467;-58
2022/05/20 11:30:17;;;;;;;8.40;7.83;;;21.40;50.20;;;;;;5038476;28;20454;-58
2022/05/20 11:33:01;;;;;;;7.70;7.20;;;21.50;50.30;;;;;;5035435;28;20483;-58
2022/05/20 11:35:41;;;;;;;7.10;6.60;;;21.40;50.20;;;;;;5037047;28;20415;-59
2022/05/20 11:38:56;;;;;;;7.83;7.27;;;21.50;50.20;;;;;;5034619;28;20528;-59
2022/05/20 11:41:34;;;;;;;7.50;7.00;;;21.50;50.30;;;;;;5032164;28;20445;-60
2022/05/20 11:44:11;;;;;;;8.03;7.43;;;21.40;50.10;;;;;;5038480;28;20448;-59
2022/05/20 11:47:13;;;;;;;9.03;8.30;;;21.40;50.20;;;;;;5033640;28;20463;-59
2022/05/20 11:49:44;;;;;;;6.77;6.37;;;21.50;50.20;;;;;;5040166;28;20889;-59
2022/05/20 11:52:32;;;;;;;8.33;7.70;;;21.40;50.10;;;;;;5035086;28;20487;-59
2022/05/20 11:55:20;;;;;;;8.27;7.60;;;21.50;50.20;;;;;;5034538;28;20458;-59
2022/05/20 11:58:02;;;;;;;8.17;7.57;;;21.40;50.10;;;;;;5036368;28;20551;-59
2022/05/20 12:00:29;;;;;;;6.63;6.33;;;21.50;50.30;;;;;;5035920;28;20487;-59
2022/05/20 12:03:25;;;;;;;7.03;6.63;;;21.50;50.40;;;;;;5025856;28;20873;-59
2022/05/20 12:05:51;;;;;;;7.30;6.80;;;21.50;50.20;;;;;;5035421;28;20965;-59
2022/05/20 12:08:39;;;;;;;7.43;6.93;;;21.50;50.10;;;;;;5031683;28;20455;-59
2022/05/20 12:11:37;;;;;;;7.40;7.00;;;21.50;50.20;;;;;;5033258;28;20440;-59
2022/05/20 12:14:14;;;;;;;6.73;6.33;;;21.50;50.20;;;;;;4963329;28;20464;-59
2022/05/20 12:17:03;;;;;;;7.00;6.57;;;21.50;50.20;;;;;;5030237;28;20962;-59
2022/05/20 12:25:38;;;;;;;7.50;7.00;;;21.40;50.30;;;;;;5031021;28;20505;-59
2022/05/20 12:28:10;;;;;;;8.17;7.47;;;21.40;50.30;;;;;;5033607;28;20793;-59
2022/05/20 12:30:41;;;;;;;7.77;7.20;;;21.40;50.30;;;;;;5027771;28;20502;-59
2022/05/20 12:33:25;;;;;;;7.80;7.20;;;21.40;50.30;;;;;;5032777;28;20470;-59
2022/05/20 12:36:14;;;;;;;8.30;7.60;;;21.40;50.30;;;;;;5027107;28;20460;-59
2022/05/20 12:38:39;;;;;;;8.17;7.47;;;21.40;50.30;;;;;;5022501;28;20535;-59
2022/05/20 12:41:20;;;;;;;7.60;7.10;;;21.40;50.50;;;;;;5034092;28;20956;-59
2022/05/20 12:43:52;;;;;;;7.80;7.30;;;21.40;50.50;;;;;;5022238;28;20272;-59
2022/05/20 12:46:56;;;;;;;7.40;6.90;;;21.40;50.50;;;;;;5029808;28;20486;-59
2022/05/20 12:49:24;;;;;;;7.20;6.80;;;21.40;51.20;;;;;;4933709;29;20448;-58
2022/05/20 12:51:51;;;;;;;7.13;6.63;;;21.40;50.60;;;;;;5011129;28;20431;-59
2022/05/20 12:54:24;;;;;;;7.73;7.20;;;21.40;50.60;;;;;;5032648;28;20460;-59
2022/05/20 12:57:14;;;;;;;7.77;7.30;;;21.40;50.50;;;;;;5025008;28;20445;-59
2022/05/20 12:59:41;;;;;;;6.70;6.30;;;21.40;50.60;;;;;;5014307;28;20463;-59
2022/05/20 13:02:14;;;;;;;7.67;7.17;;;21.40;50.60;;;;;;5030661;28;20451;-60
2022/05/20 13:04:49;;;;;;;8.33;7.73;;;21.40;50.60;;;;;;5028961;28;20452;-59
2022/05/20 13:07:17;;;;;;;7.60;7.13;;;21.40;50.60;;;;;;5029411;28;20555;-59
2022/05/20 13:09:44;;;;;;;7.33;6.87;;;21.40;51.50;;;;;;5031521;28;20443;-59
2022/05/20 13:12:18;;;;;;;6.87;6.47;;;21.40;50.70;;;;;;5027920;28;20518;-59
2022/05/20 13:14:46;;;;;;;6.77;6.27;;;21.40;50.70;;;;;;5029486;28;20447;-59
2022/05/20 13:17:13;;;;;;;6.67;6.20;;;21.40;50.70;;;;;;5025453;28;20480;-59
2022/05/20 13:19:46;;;;;;;6.63;6.23;;;21.40;50.70;;;;;;5030070;28;20460;-59
2022/05/20 13:22:17;;;;;;;6.30;5.90;;;21.40;50.70;;;;;;5027194;28;20814;-60
2022/05/20 13:24:43;;;;;;;5.87;5.50;;;21.40;50.70;;;;;;5029570;28;20460;-60
2022/05/20 13:27:17;;;;;;;5.50;5.20;;;21.40;50.60;;;;;;5027663;28;20475;-59
2022/05/20 13:29:44;;;;;;;6.03;5.70;;;21.40;50.60;;;;;;5025782;28;20910;-59
2022/05/20 13:32:28;;;;;;;6.17;5.87;;;21.40;50.70;;;;;;5031450;28;20480;-59
2022/05/20 13:34:55;;;;;;;6.30;5.80;;;21.40;50.60;;;;;;5024903;28;20506;-60
2022/05/20 13:37:29;;;;;;;6.70;6.30;;;21.40;50.70;;;;;;5029257;28;20420;-59
2022/05/20 13:40:08;;;;;;;6.50;6.20;;;21.40;50.70;;;;;;5027977;28;20598;-59
2022/05/20 13:42:34;;;;;;;6.03;5.73;;;21.40;50.70;;;;;;5024981;28;20559;-60
2022/05/20 13:45:06;;;;;;;6.63;6.13;;;21.40;50.80;;;;;;5031195;28;20532;-59
2022/05/20 13:50:19;;;;;;;6.57;6.17;;;21.40;50.80;;;;;;5024663;28;20487;-59
2022/05/20 13:52:44;;;;;;;6.20;5.80;;;21.40;50.80;;;;;;5029599;28;20467;-59
2022/05/20 13:55:14;;;;;;;5.90;5.60;;;21.40;50.80;;;;;;5026620;28;20949;-59
2022/05/20 13:57:44;;;;;;;6.60;6.30;;;21.40;50.80;;;;;;5028740;28;20306;-59